Vendome Street — A8YI6 — position and weather

sailwx.info

Track history (hours):
 
Tides and Currents Weather Stations Pressure Air Temp Water Temp Dewpoint Dewpoint Depression Visibility Wind Speed Wind Dir Waves Ship Positions

Vendome Street

Last reported at 2014-Sep-13 14:33 UTC. Time now 2014-Sep-21 12:13 UTC.
Position N 29°28' W 094°51'.

Length 177 m; draft 11.9 m.

Type: Tanker. MMSI: 636015064.

Date/timePositionNaut miles runAvg speedWind from/ knotsBaromVisibWave heightAir tempDewpointWater temp
2014-Sep-13 14:33N 29°28' W 094°51'10 9.8
2014-Sep-13 13:33N 29°36' W 094°57'8 8.3
2014-Sep-13 12:33N 29°44' W 095°01'5 4.9
2014-Sep-13 11:33N 29°44' W 095°07'0 0.4
2014-Sep-13 10:29N 29°44' W 095°07'0 0.0
2014-Sep-13 09:32N 29°44' W 095°07'0 0.0
2014-Sep-13 08:32N 29°44' W 095°07'0 0.0
2014-Sep-13 07:32N 29°44' W 095°07'0 0.0
2014-Sep-13 06:32N 29°44' W 095°07'0 0.0
2014-Sep-13 05:32N 29°44' W 095°07'0 0.0
2014-Sep-12 12:29N 29°44' W 095°07'0 0.0
2014-Sep-11 04:07N 29°44' W 095°07'1 1.2
2014-Sep-11 03:33N 29°44' W 095°07'6 5.7
2014-Sep-11 02:33N 29°42' W 095°01'1111.5
2014-Sep-11 01:33N 29°32' W 094°54'1413.7
2014-Sep-11 00:33N 29°21' W 094°46'  
Track history (hours):
 
Tides and Currents Weather Stations Pressure Air Temp Water Temp Dewpoint Dewpoint Depression Visibility Wind Speed Wind Dir Waves Ship Positions

Vendome Street

Last reported at 2014-Sep-13 14:33 UTC. Time now 2014-Sep-21 12:13 UTC.
Position N 29°28' W 094°51'.

Length 177 m; draft 11.9 m.

Type: Tanker. MMSI: 636015064.

Date/timePositionNaut miles runAvg speedWind from/ knotsBaromVisibWave heightAir tempDewpointWater temp
2014-Sep-13 14:33N 29°28' W 094°51'10 9.8
2014-Sep-13 13:33N 29°36' W 094°57'8 8.3
2014-Sep-13 12:33N 29°44' W 095°01'5 4.9
2014-Sep-13 11:33N 29°44' W 095°07'0 0.4
2014-Sep-13 10:29N 29°44' W 095°07'0 0.0
2014-Sep-13 09:32N 29°44' W 095°07'0 0.0
2014-Sep-13 08:32N 29°44' W 095°07'0 0.0
2014-Sep-13 07:32N 29°44' W 095°07'0 0.0
2014-Sep-13 06:32N 29°44' W 095°07'0 0.0
2014-Sep-13 05:32N 29°44' W 095°07'0 0.0
2014-Sep-12 12:29N 29°44' W 095°07'0 0.0
2014-Sep-11 04:07N 29°44' W 095°07'1 1.2
2014-Sep-11 03:33N 29°44' W 095°07'6 5.7
2014-Sep-11 02:33N 29°42' W 095°01'1111.5
2014-Sep-11 01:33N 29°32' W 094°54'1413.7
2014-Sep-11 00:33N 29°21' W 094°46'  

Dump ship's entire track history